Archer, Idaho
Current Conditions -  °F | °C
As of 2:53 PM on Friday 31 Oct 2014 (Local Time) from KRXE Reporting Station
Clear Clear  
Wind Chill: 69°   Ceiling: Unl
Heat Index: 69°   Visibility: 10mi
Dew Point: 23°   Wind: 18mph
Humidity: 18%   Direction: 230°SW
Pressure: 29.88"   Gusts: 25mph
Location:  43.7568°N, 111.624°W
Report Text: KRXE 312053Z AUTO 23016G22KT 10SM CLR 21/M05 A2988 RMK AO2 SLP097 T02061050 56024
Loading
Personal Weather Stations






























Interactive Weather Map
Tropical Storm Tracking
New forecast layout! Learn more

10-Day Weather Forecast

Advertisements
Track Severe Weather on mobile